Home > Products > Valid Products > TAF

000
FTUS45 KLKN 222115 AAD
TAFTPH
TAF AMD
KTPH 222115Z 2221/2318 33028G40KT P6SM FEW200
     FM230200 34015G25KT P6SM SCT090=



000
FTUS45 KLKN 222115 AAD
TAFTPH
TAF AMD
KTPH 222115Z 2221/2318 33028G40KT P6SM FEW200
     FM230200 34015G25KT P6SM SCT090=



000
FTUS45 KLKN 222115 AAC
TAFTPH
TAF AMD
KTPH 222115Z 2221/2318 29028G40KT P6SM FEW200
     FM230200 34015G25KT P6SM SCT090=



000
FTUS45 KLKN 222115 AAC
TAFTPH
TAF AMD
KTPH 222115Z 2221/2318 29028G40KT P6SM FEW200
     FM230200 34015G25KT P6SM SCT090=



000
FTUS45 KLKN 222114 AAB
TAFTPH
TAF AMD
KTPH 222114Z 2221/2318 36028G40KT P6SM FEW200
     FM230200 34015G25KT P6SM SCT090=



000
FTUS45 KLKN 222114 AAB
TAFTPH
TAF AMD
KTPH 222114Z 2221/2318 36028G40KT P6SM FEW200
     FM230200 34015G25KT P6SM SCT090=



000
FTUS45 KLKN 222008 AAA
TAFELY
TAF AMD
KELY 222008Z 2220/2318 33017G30KT P6SM BKN050
     FM230100 34011KT P6SM SCT040 BKN080
     FM231700 36008KT P6SM FEW040=



000
FTUS45 KLKN 222008 AAA
TAFTPH
TAF AMD
KTPH 222008Z 2220/2318 33028G40KT P6SM FEW200
     FM230200 34015G25KT P6SM SCT090=



000
FTUS45 KLKN 222008 AAA
TAFWMC
TAF AMD
KWMC 222008Z 2220/2318 33015G25KT P6SM VCSH SCT030 OVC050
      TEMPO 2220/2224 -SHRA OVC025
     FM230100 25010KT P6SM VCSH OVC050
     FM230800 VRB05KT P6SM SCT050
     FM231700 VRB03KT P6SM FEW050=



000
FTUS45 KLKN 222008 AAA
TAFEKO
TAF AMD
KEKO 222008Z 2220/2318 30017G27KT P6SM BKN024
     FM230100 28010KT P6SM BKN070
     FM231700 24005KT P6SM SCT070=



000
FTUS45 KLKN 222008 AAA
TAFELY
TAF AMD
KELY 222008Z 2220/2318 33017G30KT P6SM BKN050
     FM230100 34011KT P6SM SCT040 BKN080
     FM231700 36008KT P6SM FEW040=



000
FTUS45 KLKN 222008 AAA
TAFEKO
TAF AMD
KEKO 222008Z 2220/2318 30017G27KT P6SM BKN024
     FM230100 28010KT P6SM BKN070
     FM231700 24005KT P6SM SCT070=



000
FTUS45 KLKN 222008 AAA
TAFTPH
TAF AMD
KTPH 222008Z 2220/2318 33028G40KT P6SM FEW200
     FM230200 34015G25KT P6SM SCT090=



000
FTUS45 KLKN 222008 AAA
TAFWMC
TAF AMD
KWMC 222008Z 2220/2318 33015G25KT P6SM VCSH SCT030 OVC050
      TEMPO 2220/2224 -SHRA OVC025
     FM230100 25010KT P6SM VCSH OVC050
     FM230800 VRB05KT P6SM SCT050
     FM231700 VRB03KT P6SM FEW050=



000
FTUS45 KLKN 221753
TAFELY
TAF
KELY 221753Z 2218/2318 32013G23KT P6SM BKN040
     FM222000 33020G30KT P6SM BKN050
     FM230100 34011KT P6SM BKN080=



000
FTUS45 KLKN 221753
TAFTPH
TAF
KTPH 221753Z 2218/2318 33020G30KT P6SM FEW200
     FM222000 33028G40KT P6SM FEW200
     FM230200 34015G25KT P6SM SCT090=



000
FTUS45 KLKN 221753
TAFEKO
TAF
KEKO 221753Z 2218/2318 27020G33KT P6SM OVC050
     FM230100 28010KT P6SM BKN070=



000
FTUS45 KLKN 221753
TAFWMC
TAF
KWMC 221753Z 2218/2318 24015G25KT P6SM BKN070
     FM230100 25010KT P6SM BKN080=



000
FTUS45 KLKN 221753
TAFWMC
TAF
KWMC 221753Z 2218/2318 24015G25KT P6SM BKN070
     FM230100 25010KT P6SM BKN080=



000
FTUS45 KLKN 221753
TAFELY
TAF
KELY 221753Z 2218/2318 32013G23KT P6SM BKN040
     FM222000 33020G30KT P6SM BKN050
     FM230100 34011KT P6SM BKN080=



000
FTUS45 KLKN 221753
TAFEKO
TAF
KEKO 221753Z 2218/2318 27020G33KT P6SM OVC050
     FM230100 28010KT P6SM BKN070=



000
FTUS45 KLKN 221753
TAFTPH
TAF
KTPH 221753Z 2218/2318 33020G30KT P6SM FEW200
     FM222000 33028G40KT P6SM FEW200
     FM230200 34015G25KT P6SM SCT090=



000
FTUS45 KLKN 221254 AAA
TAFEKO
TAF AMD
KEKO 221254Z 2213/2312 26010KT P6SM VCSH SCT025 BKN040
      TEMPO 2213/2217 -SHRA BKN025
     FM221800 27020G33KT P6SM OVC050
     FM230100 28010KT P6SM BKN070=



000
FTUS45 KLKN 221254 AAA
TAFEKO
TAF AMD
KEKO 221254Z 2213/2312 26010KT P6SM VCSH SCT025 BKN040
      TEMPO 2213/2217 -SHRA BKN025
     FM221800 27020G33KT P6SM OVC050
     FM230100 28010KT P6SM BKN070=



000
FTUS45 KLKN 221120
TAFTPH
TAF
KTPH 221120Z 2212/2312 33020G30KT P6SM FEW200
     FM222000 33028G40KT P6SM FEW200
     FM230200 34015G25KT P6SM SCT090=



000
FTUS45 KLKN 221120
TAFWMC
TAF
KWMC 221120Z 2212/2312 23012KT P6SM OVC050
     FM221800 24015G25KT P6SM BKN070
     FM230100 25010KT P6SM BKN080=



000
FTUS45 KLKN 221120
TAFELY
TAF
KELY 221120Z 2212/2312 VRB05KT P6SM VCSH OVC035
     FM221800 32013G23KT P6SM BKN040
     FM222000 33020G30KT P6SM BKN050
     FM230100 34011KT P6SM BKN080=



000
FTUS45 KLKN 221120
TAFEKO
TAF
KEKO 221120Z 2212/2312 27010KT P6SM VCSH BKN040
     FM221800 27020G33KT P6SM VCSH OVC050
     FM230100 28010KT P6SM BKN070=



000
FTUS45 KLKN 221120
TAFEKO
TAF
KEKO 221120Z 2212/2312 27010KT P6SM VCSH BKN040
     FM221800 27020G33KT P6SM VCSH OVC050
     FM230100 28010KT P6SM BKN070=



000
FTUS45 KLKN 221120
TAFTPH
TAF
KTPH 221120Z 2212/2312 33020G30KT P6SM FEW200
     FM222000 33028G40KT P6SM FEW200
     FM230200 34015G25KT P6SM SCT090=



000
FTUS45 KLKN 221120
TAFELY
TAF
KELY 221120Z 2212/2312 VRB05KT P6SM VCSH OVC035
     FM221800 32013G23KT P6SM BKN040
     FM222000 33020G30KT P6SM BKN050
     FM230100 34011KT P6SM BKN080=



000
FTUS45 KLKN 221120
TAFWMC
TAF
KWMC 221120Z 2212/2312 23012KT P6SM OVC050
     FM221800 24015G25KT P6SM BKN070
     FM230100 25010KT P6SM BKN080=



000
FTUS45 KLKN 220724 AAA
TAFEKO
TAF AMD
KEKO 220724Z 2207/2306 27012KT P6SM VCSH SCT020 BKN035
      TEMPO 2207/2210 -SHRA BKN020
     FM221600 26015G25KT P6SM -RA OVC025
     FM221800 27020G33KT P6SM VCSH OVC050=



000
FTUS45 KLKN 220724 AAA
TAFEKO
TAF AMD
KEKO 220724Z 2207/2306 27012KT P6SM VCSH SCT020 BKN035
      TEMPO 2207/2210 -SHRA BKN020
     FM221600 26015G25KT P6SM -RA OVC025
     FM221800 27020G33KT P6SM VCSH OVC050=



000
FTUS45 KLKN 220724 AAA
TAFEKO
TAF AMD
KEKO 220724Z 2207/2306 27012KT P6SM VCSH SCT020 BKN035
      TEMPO 2207/2210 -SHRA BKN020
     FM221600 26015G25KT P6SM -RA OVC025
     FM221800 27020G33KT P6SM VCSH OVC050=



000
FTUS45 KLKN 220724 AAA
TAFEKO
TAF AMD
KEKO 220724Z 2207/2306 27012KT P6SM VCSH SCT020 BKN035
      TEMPO 2207/2210 -SHRA BKN020
     FM221600 26015G25KT P6SM -RA OVC025
     FM221800 27020G33KT P6SM VCSH OVC050=



000
FTUS45 KLKN 220636 AAA
TAFTPH
TAF AMD
KTPH 220636Z 2207/2306 33015G25KT P6SM SCT150
     FM222000 33025G40KT P6SM FEW200
     FM230200 34015G25KT P6SM SCT090=



000
FTUS45 KLKN 220636 AAA
TAFTPH
TAF AMD
KTPH 220636Z 2207/2306 33015G25KT P6SM SCT150
     FM222000 33025G40KT P6SM FEW200
     FM230200 34015G25KT P6SM SCT090=



000
FTUS45 KLKN 220534
TAFELY
TAF
KELY 220534Z 2206/2306 VRB06KT P6SM VCSH OVC028
     FM221700 32015G25KT P6SM VCSH SCT030 OVC050
     FM222000 33020G30KT P6SM VCSH SCT030 BKN050
     FM230000 34011KT P6SM SCT050 BKN070=



000
FTUS45 KLKN 220534
TAFTPH
TAF
KTPH 220534Z 2206/2306 33011KT P6SM SCT050 BKN070
     FM221600 33015G25KT P6SM SCT070 BKN090
     FM221800 33025G35KT P6SM SCT090
     FM222000 33030G40KT P6SM SCT090
     FM230000 34015G30KT P6SM SCT090
     FM230400 34010G20KT P6SM SCT100=



000
FTUS45 KLKN 220534
TAFWMC
TAF
KWMC 220534Z 2206/2306 26010KT P6SM OVC060
     FM221800 24015G25KT P6SM VCSH SCT050 BKN070
     FM230000 25010KT P6SM SCT060 BKN080=



000
FTUS45 KLKN 220534
TAFELY
TAF
KELY 220534Z 2206/2306 VRB06KT P6SM VCSH OVC028
     FM221700 32015G25KT P6SM VCSH SCT030 OVC050
     FM222000 33020G30KT P6SM VCSH SCT030 BKN050
     FM230000 34011KT P6SM SCT050 BKN070=



000
FTUS45 KLKN 220534
TAFTPH
TAF
KTPH 220534Z 2206/2306 33011KT P6SM SCT050 BKN070
     FM221600 33015G25KT P6SM SCT070 BKN090
     FM221800 33025G35KT P6SM SCT090
     FM222000 33030G40KT P6SM SCT090
     FM230000 34015G30KT P6SM SCT090
     FM230400 34010G20KT P6SM SCT100=



000
FTUS45 KLKN 220534
TAFEKO
TAF
KEKO 220534Z 2206/2306 27015KT 6SM -RA SCT015 BKN030 OVC050
      TEMPO 2206/2210 5SM -RA BKN015
     FM221600 26015G25KT P6SM -RA OVC025
     FM221800 27020G33KT P6SM VCSH OVC050=



000
FTUS45 KLKN 220534
TAFWMC
TAF
KWMC 220534Z 2206/2306 26010KT P6SM OVC060
     FM221800 24015G25KT P6SM VCSH SCT050 BKN070
     FM230000 25010KT P6SM SCT060 BKN080=



000
FTUS45 KLKN 220534
TAFEKO
TAF
KEKO 220534Z 2206/2306 27015KT 6SM -RA SCT015 BKN030 OVC050
      TEMPO 2206/2210 5SM -RA BKN015
     FM221600 26015G25KT P6SM -RA OVC025
     FM221800 27020G33KT P6SM VCSH OVC050=



000
FTUS45 KLKN 220436 AAD
TAFEKO
TAF AMD
KEKO 220436Z 2205/2224 22006KT P6SM -RA SCT020 BKN030
      TEMPO 2205/2209 5SM -RA BKN020
     FM221200 23010KT P6SM VCSH OVC035
     FM221700 23014G24KT P6SM VCSH OVC040
     FM221900 25020G33KT P6SM VCSH OVC040=



000
FTUS45 KLKN 220322 AAB
TAFELY
TAF AMD
KELY 220322Z 2203/2224 VRB06KT P6SM -RA BKN030
     FM221600 33013G23KT P6SM VCSH BKN050
     FM221900 33018G28KT P6SM VCSH SCT050 OVC080=



000
FTUS45 KLKN 220322 AAB
TAFELY
TAF AMD
KELY 220322Z 2203/2224 VRB06KT P6SM -RA BKN030
     FM221600 33013G23KT P6SM VCSH BKN050
     FM221900 33018G28KT P6SM VCSH SCT050 OVC080=



000
FTUS45 KLKN 220304 AAC
TAFEKO
TAF AMD
KEKO 220304Z 2203/2224 22006KT 6SM -RA SCT015 BKN045
      TEMPO 2203/2207 5SM -RA BKN015
     FM221200 23010KT P6SM VCSH OVC035
     FM221700 23014G24KT P6SM VCSH OVC040
     FM221900 25020G33KT P6SM VCSH OVC040=



000
FTUS45 KLKN 220304 AAC
TAFEKO
TAF AMD
KEKO 220304Z 2203/2224 22006KT 6SM -RA SCT015 BKN045
      TEMPO 2203/2207 5SM -RA BKN015
     FM221200 23010KT P6SM VCSH OVC035
     FM221700 23014G24KT P6SM VCSH OVC040
     FM221900 25020G33KT P6SM VCSH OVC040=



000
FTUS45 KLKN 220302 AAB
TAFWMC
TAF AMD
KWMC 220302Z 2203/2224 24011KT P6SM VCSH BKN045
     FM221800 24014G24KT P6SM VCSH SCT030 OVC050=



000
FTUS45 KLKN 220028 AAA
TAFELY
TAF AMD
KELY 220028Z 2200/2224 VRB06KT P6SM -RA BKN030
     FM220300 18009KT P6SM OVC050
     FM221600 33013G23KT P6SM VCSH BKN050
     FM221900 33018G28KT P6SM VCSH SCT050 OVC080=



000
FTUS45 KLKN 220028 AAA
TAFELY
TAF AMD
KELY 220028Z 2200/2224 VRB06KT P6SM -RA BKN030
     FM220300 18009KT P6SM OVC050
     FM221600 33013G23KT P6SM VCSH BKN050
     FM221900 33018G28KT P6SM VCSH SCT050 OVC080=



000
FTUS45 KLKN 220028 AAA
TAFELY
TAF AMD
KELY 220028Z 2200/2224 VRB06KT P6SM -RA BKN030
     FM220300 18009KT P6SM OVC050
     FM221600 33013G23KT P6SM VCSH BKN050
     FM221900 33018G28KT P6SM VCSH SCT050 OVC080=



000
FTUS45 KLKN 220028 AAA
TAFELY
TAF AMD
KELY 220028Z 2200/2224 VRB06KT P6SM -RA BKN030
     FM220300 18009KT P6SM OVC050
     FM221600 33013G23KT P6SM VCSH BKN050
     FM221900 33018G28KT P6SM VCSH SCT050 OVC080=



000
FTUS45 KLKN 220027 AAB
TAFEKO
TAF AMD
KEKO 220027Z 2200/2224 24010KT P6SM VCSH SCT010 OVC030
     FM221200 23010KT P6SM VCSH OVC035
     FM221700 23014G24KT P6SM VCSH OVC040
     FM221900 25020G33KT P6SM VCSH OVC040=



000
FTUS45 KLKN 220027 AAB
TAFEKO
TAF AMD
KEKO 220027Z 2200/2224 24010KT P6SM VCSH SCT010 OVC030
     FM221200 23010KT P6SM VCSH OVC035
     FM221700 23014G24KT P6SM VCSH OVC040
     FM221900 25020G33KT P6SM VCSH OVC040=



000
FTUS45 KLKN 220027 AAB
TAFEKO
TAF AMD
KEKO 220027Z 2200/2224 24010KT P6SM VCSH SCT010 OVC030
     FM221200 23010KT P6SM VCSH OVC035
     FM221700 23014G24KT P6SM VCSH OVC040
     FM221900 25020G33KT P6SM VCSH OVC040=



000
FTUS45 KLKN 220027 AAB
TAFEKO
TAF AMD
KEKO 220027Z 2200/2224 24010KT P6SM VCSH SCT010 OVC030
     FM221200 23010KT P6SM VCSH OVC035
     FM221700 23014G24KT P6SM VCSH OVC040
     FM221900 25020G33KT P6SM VCSH OVC040=



000
FTUS45 KLKN 220025 AAA
TAFEKO
TAF AMD
KEKO 220025Z 2200/2224 24011KT P6SM SCT010 OVC025
     FM221200 23010KT P6SM VCSH OVC035
     FM221700 23014G24KT P6SM VCSH OVC040
     FM221900 25020G33KT P6SM VCSH OVC040=



000
FTUS45 KLKN 220025 AAA
TAFEKO
TAF AMD
KEKO 220025Z 2200/2224 24011KT P6SM SCT010 OVC025
     FM221200 23010KT P6SM VCSH OVC035
     FM221700 23014G24KT P6SM VCSH OVC040
     FM221900 25020G33KT P6SM VCSH OVC040=



000
FTUS45 KLKN 220025 AAA
TAFEKO
TAF AMD
KEKO 220025Z 2200/2224 24011KT P6SM SCT010 OVC025
     FM221200 23010KT P6SM VCSH OVC035
     FM221700 23014G24KT P6SM VCSH OVC040
     FM221900 25020G33KT P6SM VCSH OVC040=



000
FTUS45 KLKN 220025 AAA
TAFEKO
TAF AMD
KEKO 220025Z 2200/2224 24011KT P6SM SCT010 OVC025
     FM221200 23010KT P6SM VCSH OVC035
     FM221700 23014G24KT P6SM VCSH OVC040
     FM221900 25020G33KT P6SM VCSH OVC040=



000
FTUS45 KLKN 220023 AAA
TAFWMC
TAF AMD
KWMC 220023Z 2200/2224 17011KT P6SM VCSH OVC040
     FM221800 24014G24KT P6SM VCSH SCT030 OVC050=



000
FTUS45 KLKN 220023 AAA
TAFWMC
TAF AMD
KWMC 220023Z 2200/2224 17011KT P6SM VCSH OVC040
     FM221800 24014G24KT P6SM VCSH SCT030 OVC050=



000
FTUS45 KLKN 220023 AAA
TAFWMC
TAF AMD
KWMC 220023Z 2200/2224 17011KT P6SM VCSH OVC040
     FM221800 24014G24KT P6SM VCSH SCT030 OVC050=



000
FTUS45 KLKN 220023 AAA
TAFWMC
TAF AMD
KWMC 220023Z 2200/2224 17011KT P6SM VCSH OVC040
     FM221800 24014G24KT P6SM VCSH SCT030 OVC050=



000
FTUS45 KLKN 212320
TAFEKO
TAF
KEKO 212320Z 2200/2224 23013G23KT P6SM -SHRA OVC025
      TEMPO 2200/2204 -SHRA OVC017
     FM221200 23010KT P6SM VCSH OVC035
     FM221700 23014G24KT P6SM VCSH OVC040
     FM221900 25020G33KT P6SM VCSH OVC040=



000
FTUS45 KLKN 212320
TAFTPH
TAF
KTPH 212320Z 2200/2224 32015G25KT P6SM SCT100
     FM220500 36010KT P6SM SCT110 BKN160
     FM221600 34013G23KT P6SM FEW110 SCT160
     FM221900 33025G35KT P6SM SCT160=



000
FTUS45 KLKN 212320
TAFWMC
TAF
KWMC 212320Z 2200/2224 20012KT P6SM VCSH OVC040
     FM221800 24014G24KT P6SM VCSH SCT030 OVC050=



000
FTUS45 KLKN 212320
TAFEKO
TAF
KEKO 212320Z 2200/2224 23013G23KT P6SM -SHRA OVC025
      TEMPO 2200/2204 -SHRA OVC017
     FM221200 23010KT P6SM VCSH OVC035
     FM221700 23014G24KT P6SM VCSH OVC040
     FM221900 25020G33KT P6SM VCSH OVC040=



000
FTUS45 KLKN 212320
TAFWMC
TAF
KWMC 212320Z 2200/2224 20012KT P6SM VCSH OVC040
     FM221800 24014G24KT P6SM VCSH SCT030 OVC050=



000
FTUS45 KLKN 212320
TAFELY
TAF
KELY 212320Z 2200/2224 VRB06KT P6SM BKN050
     FM220300 18009KT P6SM OVC050
     FM221600 33013G23KT P6SM VCSH BKN050
     FM221900 33018G28KT P6SM VCSH SCT050 OVC080=



000
FTUS45 KLKN 212320
TAFTPH
TAF
KTPH 212320Z 2200/2224 32015G25KT P6SM SCT100
     FM220500 36010KT P6SM SCT110 BKN160
     FM221600 34013G23KT P6SM FEW110 SCT160
     FM221900 33025G35KT P6SM SCT160=



000
FTUS45 KLKN 212320
TAFELY
TAF
KELY 212320Z 2200/2224 VRB06KT P6SM BKN050
     FM220300 18009KT P6SM OVC050
     FM221600 33013G23KT P6SM VCSH BKN050
     FM221900 33018G28KT P6SM VCSH SCT050 OVC080=



000
FTUS45 KLKN 211720
TAFWMC
TAF
KWMC 211720Z 2118/2218 20012KT P6SM VCSH OVC040=



000
FTUS45 KLKN 211720
TAFWMC
TAF
KWMC 211720Z 2118/2218 20012KT P6SM VCSH OVC040=



000
FTUS45 KLKN 211720
TAFELY
TAF
KELY 211720Z 2118/2218 VRB06KT P6SM VCSH BKN035
     FM211900 VRB06KT P6SM BKN050
     FM220300 18009KT P6SM OVC050=



000
FTUS45 KLKN 211720
TAFEKO
TAF
KEKO 211720Z 2118/2218 23010KT P6SM VCSH OVC035=



000
FTUS45 KLKN 211720
TAFTPH
TAF
KTPH 211720Z 2118/2218 VRB04KT P6SM SCT090 BKN150
     FM212000 32015G25KT P6SM SCT100
     FM220300 36010KT P6SM SCT200=



000
FTUS45 KLKN 211450 AAA
TAFELY
TAF AMD
KELY 211450Z 2115/2212 VRB06KT P6SM VCSH BKN035
     FM211900 VRB06KT P6SM BKN050=



000
FTUS45 KLKN 211450 AAA
TAFELY
TAF AMD
KELY 211450Z 2115/2212 VRB06KT P6SM VCSH BKN035
     FM211900 VRB06KT P6SM BKN050=



000
FTUS45 KLKN 211255 AAA
TAFEKO
TAF AMD
KEKO 211255Z 2113/2212 23010KT P6SM VCSH OVC035=



000
FTUS45 KLKN 211255 AAA
TAFEKO
TAF AMD
KEKO 211255Z 2113/2212 23010KT P6SM VCSH OVC035=



000
FTUS45 KLKN 211255 AAA
TAFEKO
TAF AMD
KEKO 211255Z 2113/2212 23010KT P6SM VCSH OVC035=



000
FTUS45 KLKN 211255 AAA
TAFEKO
TAF AMD
KEKO 211255Z 2113/2212 23010KT P6SM VCSH OVC035=



000
FTUS45 KLKN 211120
TAFEKO
TAF
KEKO 211120Z 2112/2212 23012KT P6SM VCSH OVC025
     FM220300 25010KT P6SM VCSH OVC040=



000
FTUS45 KLKN 211120
TAFTPH
TAF
KTPH 211120Z 2112/2212 VRB04KT P6SM SCT090 BKN150
     FM212000 32015G25KT P6SM SCT100
     FM220300 34010KT P6SM SCT200=



000
FTUS45 KLKN 211120
TAFWMC
TAF
KWMC 211120Z 2112/2212 20012KT P6SM VCSH OVC040=



000
FTUS45 KLKN 211120
TAFELY
TAF
KELY 211120Z 2112/2212 VRB06KT P6SM VCSH BKN025
     FM211800 VRB06KT P6SM BKN040=



000
FTUS45 KLKN 211120
TAFWMC
TAF
KWMC 211120Z 2112/2212 20012KT P6SM VCSH OVC040=



000
FTUS45 KLKN 211120
TAFEKO
TAF
KEKO 211120Z 2112/2212 23012KT P6SM VCSH OVC025
     FM220300 25010KT P6SM VCSH OVC040=



000
FTUS45 KLKN 211120
TAFELY
TAF
KELY 211120Z 2112/2212 VRB06KT P6SM VCSH BKN025
     FM211800 VRB06KT P6SM BKN040=



000
FTUS45 KLKN 211120
TAFTPH
TAF
KTPH 211120Z 2112/2212 VRB04KT P6SM SCT090 BKN150
     FM212000 32015G25KT P6SM SCT100
     FM220300 34010KT P6SM SCT200=



000
FTUS45 KLKN 210739 AAA
TAFEKO
TAF AMD
KEKO 210739Z 2108/2206 23009KT P6SM -RA OVC015
     FM211900 23012G20KT P6SM VCSH OVC040=



000
FTUS45 KLKN 210739 AAA
TAFEKO
TAF AMD
KEKO 210739Z 2108/2206 23009KT P6SM -RA OVC015
     FM211900 23012G20KT P6SM VCSH OVC040=



000
FTUS45 KLKN 210733 AAA
TAFWMC
TAF AMD
KWMC 210733Z 2108/2206 19011KT P6SM VCSH OVC035=



000
FTUS45 KLKN 210733 AAA
TAFWMC
TAF AMD
KWMC 210733Z 2108/2206 19011KT P6SM VCSH OVC035=



000
FTUS45 KLKN 210540
TAFWMC
TAF
KWMC 210540Z 2106/2206 19011KT P6SM VCSH SCT020 OVC030=



000
FTUS45 KLKN 210540
TAFTPH
TAF
KTPH 210540Z 2106/2206 VRB06KT P6SM SCT050 SCT070
     FM212000 32010G20KT P6SM SCT070=



000
FTUS45 KLKN 210540
TAFELY
TAF
KELY 210540Z 2106/2206 VRB06KT P6SM VCSH SCT015 BKN025=



000
FTUS45 KLKN 210540
TAFEKO
TAF
KEKO 210540Z 2106/2206 24009KT 5SM -RASN BR SCT008 BKN020
     FM210800 23011KT P6SM VCSH SCT015 OVC035=



000
FTUS45 KLKN 210540
TAFWMC
TAF
KWMC 210540Z 2106/2206 19011KT P6SM VCSH SCT020 OVC030=



000
FTUS45 KLKN 210540
TAFELY
TAF
KELY 210540Z 2106/2206 VRB06KT P6SM VCSH SCT015 BKN025=



000
FTUS45 KLKN 210540
TAFEKO
TAF
KEKO 210540Z 2106/2206 24009KT 5SM -RASN BR SCT008 BKN020
     FM210800 23011KT P6SM VCSH SCT015 OVC035=



000
FTUS45 KLKN 210540
TAFTPH
TAF
KTPH 210540Z 2106/2206 VRB06KT P6SM SCT050 SCT070
     FM212000 32010G20KT P6SM SCT070=



000
FTUS45 KLKN 210208 AAA
TAFEKO
TAF AMD
KEKO 210208Z 2102/2124 24009KT 5SM -RASN BR BKN008
     FM210600 23011KT P6SM VCSH SCT010 OVC030
     FM211900 23013G23KT P6SM VCSH BKN025 OVC040=



000
FTUS45 KLKN 210208 AAA
TAFEKO
TAF AMD
KEKO 210208Z 2102/2124 24009KT 5SM -RASN BR BKN008
     FM210600 23011KT P6SM VCSH SCT010 OVC030
     FM211900 23013G23KT P6SM VCSH BKN025 OVC040=



000
FTUS45 KLKN 210021 AAA
TAFTPH
TAF AMD
KTPH 210021Z 2100/2124 VRB06KT P6SM BKN070
     FM211900 32015G25KT P6SM SCT050 BKN200=



000
FTUS45 KLKN 210021 AAA
TAFTPH
TAF AMD
KTPH 210021Z 2100/2124 VRB06KT P6SM BKN070
     FM211900 32015G25KT P6SM SCT050 BKN200=



000
FTUS45 KLKN 210017 AAA
TAFWMC
TAF AMD
KWMC 210017Z 2100/2124 17015KT 5SM -RA BR SCT010 OVC030
     FM210700 20007KT P6SM VCSH SCT020 OVC030
     FM211900 22012G22KT P6SM OVC040=



000
FTUS45 KLKN 210017 AAA
TAFWMC
TAF AMD
KWMC 210017Z 2100/2124 17015KT 5SM -RA BR SCT010 OVC030
     FM210700 20007KT P6SM VCSH SCT020 OVC030
     FM211900 22012G22KT P6SM OVC040=



000
FTUS45 KLKN 202320
TAFTPH
TAF
KTPH 202320Z 2100/2124 29007KT P6SM SCT060 BKN100 OVC200
     FM211900 32015G25KT P6SM SCT050 BKN200=



000
FTUS45 KLKN 202320
TAFELY
TAF
KELY 202320Z 2100/2124 VRB05KT P6SM VCSH BKN035 OVC040
     FM210300 17007KT P6SM VCSH BKN030 OVC040
     FM211500 18007KT P6SM VCSH BKN040 OVC050
     FM212000 30008KT P6SM BKN040 OVC200=



000
FTUS45 KLKN 202320
TAFEKO
TAF
KEKO 202320Z 2100/2124 22005KT P6SM VCSH BKN020 OVC030
     FM210100 23009KT 5SM -RA BR OVC015
     FM211900 23013G23KT P6SM VCSH BKN025 OVC040=



000
FTUS45 KLKN 202320
TAFWMC
TAF
KWMC 202320Z 2100/2124 19007KT 5SM -RA BR OVC019
     FM210700 20007KT P6SM VCSH SCT020 OVC030
     FM211900 22012G22KT P6SM OVC040=



000
FTUS45 KLKN 202320
TAFELY
TAF
KELY 202320Z 2100/2124 VRB05KT P6SM VCSH BKN035 OVC040
     FM210300 17007KT P6SM VCSH BKN030 OVC040
     FM211500 18007KT P6SM VCSH BKN040 OVC050
     FM212000 30008KT P6SM BKN040 OVC200=



000
FTUS45 KLKN 202320
TAFEKO
TAF
KEKO 202320Z 2100/2124 22005KT P6SM VCSH BKN020 OVC030
     FM210100 23009KT 5SM -RA BR OVC015
     FM211900 23013G23KT P6SM VCSH BKN025 OVC040=



000
FTUS45 KLKN 202320
TAFTPH
TAF
KTPH 202320Z 2100/2124 29007KT P6SM SCT060 BKN100 OVC200
     FM211900 32015G25KT P6SM SCT050 BKN200=



000
FTUS45 KLKN 202320
TAFWMC
TAF
KWMC 202320Z 2100/2124 19007KT 5SM -RA BR OVC019
     FM210700 20007KT P6SM VCSH SCT020 OVC030
     FM211900 22012G22KT P6SM OVC040=



000
FTUS45 KLKN 202007 AAB
TAFEKO
TAF AMD
KEKO 202007Z 2020/2118 VRB05KT P6SM OVC012
     FM202100 22006KT 5SM -RASN BR OVC015
     FM210300 23009KT P6SM -SHRASN SCT025 OVC040
     FM211700 23013G23KT P6SM VCSH OVC025=



000
FTUS45 KLKN 202007 AAB
TAFEKO
TAF AMD
KEKO 202007Z 2020/2118 VRB05KT P6SM OVC012
     FM202100 22006KT 5SM -RASN BR OVC015
     FM210300 23009KT P6SM -SHRASN SCT025 OVC040
     FM211700 23013G23KT P6SM VCSH OVC025=



000
FTUS45 KLKN 202005 AAB
TAFWMC
TAF AMD
KWMC 202005Z 2020/2118 17008KT 6SM -RA BR OVC023
     FM210700 19007KT P6SM SCT030 OVC040=



000
FTUS45 KLKN 202005 AAB
TAFWMC
TAF AMD
KWMC 202005Z 2020/2118 17008KT 6SM -RA BR OVC023
     FM210700 19007KT P6SM SCT030 OVC040=



000
FTUS45 KLKN 201917 AAA
TAFEKO
TAF AMD
KEKO 201917Z 2019/2118 00000KT P6SM -RASN BKN003 OVC012
      TEMPO 2019/2021 SCT005 OVC015
     FM202100 22006KT P6SM -RASN OVC025
     FM210300 23009KT P6SM -SHRASN SCT025 OVC040
     FM211700 23013G23KT P6SM VCSH OVC025=



000
FTUS45 KLKN 201917 AAA
TAFEKO
TAF AMD
KEKO 201917Z 2019/2118 00000KT P6SM -RASN BKN003 OVC012
      TEMPO 2019/2021 SCT005 OVC015
     FM202100 22006KT P6SM -RASN OVC025
     FM210300 23009KT P6SM -SHRASN SCT025 OVC040
     FM211700 23013G23KT P6SM VCSH OVC025=



000
FTUS45 KLKN 201833 AAA
TAFWMC
TAF AMD
KWMC 201833Z 2019/2118 17010KT P6SM SCT027 SCT035 OVC045
     FM202300 17009KT 6SM -RA BR BKN025 OVC040
     FM210700 19007KT P6SM SCT030 OVC040=



000
FTUS45 KLKN 201724
TAFTPH
TAF
KTPH 201724Z 2018/2118 21007KT P6SM VCSH SCT030 OVC060
     FM202100 23007KT P6SM -SHRASN SCT015 OVC035
     FM210400 36009KT P6SM VCSH OVC035
     FM211700 34015G25KT P6SM SCT050=



000
FTUS45 KLKN 201724
TAFWMC
TAF
KWMC 201724Z 2018/2118 17009KT P6SM -RA BKN020 OVC040=



000
FTUS45 KLKN 201724
TAFEKO
TAF
KEKO 201724Z 2018/2118 VRB05KT 1 1/2SM -SN BR OVC017
      TEMPO 2018/2019 3SM -SN BR OVC025
     FM202000 22006KT P6SM -RASN OVC025
     FM210300 23009KT P6SM -SHRASN SCT025 OVC040
     FM211700 23013G23KT P6SM VCSH OVC025=



000
FTUS45 KLKN 201724
TAFTPH
TAF
KTPH 201724Z 2018/2118 21007KT P6SM VCSH SCT030 OVC060
     FM202100 23007KT P6SM -SHRASN SCT015 OVC035
     FM210400 36009KT P6SM VCSH OVC035
     FM211700 34015G25KT P6SM SCT050=



000
FTUS45 KLKN 201724
TAFWMC
TAF
KWMC 201724Z 2018/2118 17009KT P6SM -RA BKN020 OVC040=



000
FTUS45 KLKN 201724
TAFEKO
TAF
KEKO 201724Z 2018/2118 VRB05KT 1 1/2SM -SN BR OVC017
      TEMPO 2018/2019 3SM -SN BR OVC025
     FM202000 22006KT P6SM -RASN OVC025
     FM210300 23009KT P6SM -SHRASN SCT025 OVC040
     FM211700 23013G23KT P6SM VCSH OVC025=



000
FTUS45 KLKN 201724
TAFELY
TAF
KELY 201724Z 2018/2118 16007KT P6SM VCSH OVC050
     FM201900 19006KT P6SM VCSH SCT030 OVC050
      TEMPO 2020/2022 -SHRASN OVC020
     FM202200 18008KT 5SM -SHRA OVC019
     FM210200 18009KT P6SM VCSH OVC040
     FM211700 29008KT P6SM VCSH OVC050=



000
FTUS45 KLKN 201724
TAFELY
TAF
KELY 201724Z 2018/2118 16007KT P6SM VCSH OVC050
     FM201900 19006KT P6SM VCSH SCT030 OVC050
      TEMPO 2020/2022 -SHRASN OVC020
     FM202200 18008KT 5SM -SHRA OVC019
     FM210200 18009KT P6SM VCSH OVC040
     FM211700 29008KT P6SM VCSH OVC050=



000
FTUS45 KLKN 201602 AAA
TAFEKO
TAF AMD
KEKO 201602Z 2016/2112 16003KT 1 1/2SM -SN BR OVC024
      TEMPO 2016/2018 3SM -SN BR OVC025
     FM202000 22006KT P6SM -RASN OVC025
     FM210300 23009KT P6SM -SHRA SCT025 OVC040=



000
FTUS45 KLKN 201602 AAA
TAFEKO
TAF AMD
KEKO 201602Z 2016/2112 16003KT 1 1/2SM -SN BR OVC024
      TEMPO 2016/2018 3SM -SN BR OVC025
     FM202000 22006KT P6SM -RASN OVC025
     FM210300 23009KT P6SM -SHRA SCT025 OVC040=



000
FTUS45 KLKN 201431 AAB
TAFTPH
TAF AMD
KTPH 201431Z 2015/2112 VRB05KT P6SM VCSH OVC060=



000
FTUS45 KLKN 201431 AAB
TAFTPH
TAF AMD
KTPH 201431Z 2015/2112 VRB05KT P6SM VCSH OVC060=



000
FTUS45 KLKN 201429 AAB
TAFWMC
TAF AMD
KWMC 201429Z 2014/2112 18010KT P6SM -RA BKN025 OVC040=



000
FTUS45 KLKN 201429 AAB
TAFWMC
TAF AMD
KWMC 201429Z 2014/2112 18010KT P6SM -RA BKN025 OVC040=



000
FTUS45 KLKN 201230 AAA
TAFWMC
TAF AMD
KWMC 201230Z 2013/2112 18010KT P6SM BKN025 OVC040=



000
FTUS45 KLKN 201230 AAA
TAFWMC
TAF AMD
KWMC 201230Z 2013/2112 18010KT P6SM BKN025 OVC040=



000
FTUS45 KLKN 201212 AAA
TAFTPH
TAF AMD
KTPH 201212Z 2012/2112 01005KT P6SM BKN016 OVC060
     FM201600 VRB05KT P6SM VCSH BKN060=



000
FTUS45 KLKN 201212 AAA
TAFTPH
TAF AMD
KTPH 201212Z 2012/2112 01005KT P6SM BKN016 OVC060
     FM201600 VRB05KT P6SM VCSH BKN060=



000
FTUS45 KLKN 201133
TAFTPH
TAF
KTPH 201133Z 2012/2112 35007KT P6SM VCSH SCT020 OVC060=



000
FTUS45 KLKN 201133
TAFELY
TAF
KELY 201133Z 2012/2112 17007KT P6SM OVC080
     FM201800 22006KT P6SM VCSH OVC050=



000
FTUS45 KLKN 201133
TAFEKO
TAF
KEKO 201133Z 2012/2112 VRB03KT P6SM VCSH OVC050
     FM201500 21006KT 4SM -SN OVC025
     FM202000 22006KT P6SM -RASN OVC025
     FM210300 23009KT P6SM -SHRA SCT025 OVC040=



000
FTUS45 KLKN 201133
TAFWMC
TAF
KWMC 201133Z 2012/2112 17007KT P6SM VCSH SCT030 OVC050
     FM201600 18010KT P6SM -SHRA OVC025=



000
FTUS45 KLKN 201019 AAA
TAFEKO
TAF AMD
KEKO 201019Z 2010/2106 VRB03KT P6SM OVC050
     FM201200 20003KT P6SM VCSH SCT025 OVC040
     FM201500 21006KT 4SM -SN OVC025
     FM202000 22006KT P6SM -RASN OVC025
     FM210300 23009KT P6SM -SHRA SCT025 OVC040=



000
FTUS45 KLKN 201019 AAA
TAFEKO
TAF AMD
KEKO 201019Z 2010/2106 VRB03KT P6SM OVC050
     FM201200 20003KT P6SM VCSH SCT025 OVC040
     FM201500 21006KT 4SM -SN OVC025
     FM202000 22006KT P6SM -RASN OVC025
     FM210300 23009KT P6SM -SHRA SCT025 OVC040=



000
FTUS45 KLKN 200535
TAFWMC
TAF
KWMC 200535Z 2006/2106 17007KT P6SM VCSH SCT025 BKN050
     FM201600 18010KT P6SM -SHRA OVC025=



000
FTUS45 KLKN 200535
TAFTPH
TAF
KTPH 200535Z 2006/2106 35008KT P6SM BKN080
     FM201900 30008KT P6SM BKN060=



000
FTUS45 KLKN 200535
TAFEKO
TAF
KEKO 200535Z 2006/2106 21003KT 6SM BR VCFG OVC010
     FM201500 20005KT P6SM VCSH SCT006 OVC012
     FM201800 24005KT P6SM -SHRASN SCT012 OVC025
     FM210300 23008KT P6SM -RA OVC025=



000
FTUS45 KLKN 200535
TAFELY
TAF
KELY 200535Z 2006/2106 17005KT P6SM OVC080
     FM201800 22006KT P6SM VCSH OVC050=



000
FTUS45 KLKN 200535
TAFTPH
TAF
KTPH 200535Z 2006/2106 35008KT P6SM BKN080
     FM201900 30008KT P6SM BKN060=



000
FTUS45 KLKN 200535
TAFELY
TAF
KELY 200535Z 2006/2106 17005KT P6SM OVC080
     FM201800 22006KT P6SM VCSH OVC050=



000
FTUS45 KLKN 200535
TAFWMC
TAF
KWMC 200535Z 2006/2106 17007KT P6SM VCSH SCT025 BKN050
     FM201600 18010KT P6SM -SHRA OVC025=



000
FTUS45 KLKN 200535
TAFEKO
TAF
KEKO 200535Z 2006/2106 21003KT 6SM BR VCFG OVC010
     FM201500 20005KT P6SM VCSH SCT006 OVC012
     FM201800 24005KT P6SM -SHRASN SCT012 OVC025
     FM210300 23008KT P6SM -RA OVC025=



000
FTUS45 KLKN 200430 AAD
TAFEKO
TAF AMD
KEKO 200430Z 2005/2024 VRB03KT 5SM -SN SCT006 OVC020
     FM200600 VRB03KT P6SM VCSH BKN025
     FM201500 21005KT 2SM -SN SCT006 OVC012
     FM201800 24005KT P6SM -SHRASN SCT012 OVC025=



000
FTUS45 KLKN 200430 AAD
TAFEKO
TAF AMD
KEKO 200430Z 2005/2024 VRB03KT 5SM -SN SCT006 OVC020
     FM200600 VRB03KT P6SM VCSH BKN025
     FM201500 21005KT 2SM -SN SCT006 OVC012
     FM201800 24005KT P6SM -SHRASN SCT012 OVC025=



000
FTUS45 KLKN 200105 AAC
TAFWMC
TAF AMD
KWMC 200105Z 2001/2024 16010KT P6SM SCT028 BKN050
     FM200200 14004KT P6SM BKN050
     FM200500 VRB05KT P6SM VCSH SCT025 BKN050
     FM201900 18010G15KT P6SM -SHRA OVC025=



000
FTUS45 KLKN 200105 AAC
TAFWMC
TAF AMD
KWMC 200105Z 2001/2024 16010KT P6SM SCT028 BKN050
     FM200200 14004KT P6SM BKN050
     FM200500 VRB05KT P6SM VCSH SCT025 BKN050
     FM201900 18010G15KT P6SM -SHRA OVC025=



000
FTUS45 KLKN 200033 AAC
TAFEKO
TAF AMD
KEKO 200033Z 2001/2024 VRB04KT P6SM -RASN OVC020
      TEMPO 2001/2004 1SM -SN OVC010
     FM200400 VRB05KT P6SM VCSH OVC035
     FM201900 24007KT P6SM VCSH OVC040=



000
FTUS45 KLKN 200033 AAC
TAFEKO
TAF AMD
KEKO 200033Z 2001/2024 VRB04KT P6SM -RASN OVC020
      TEMPO 2001/2004 1SM -SN OVC010
     FM200400 VRB05KT P6SM VCSH OVC035
     FM201900 24007KT P6SM VCSH OVC040=



000
FTUS45 KLKN 200011 AAB
TAFWMC
TAF AMD
KWMC 200011Z 2000/2024 14004KT P6SM -RA OVC020
     FM200200 14004KT P6SM VCSH BKN030
     FM200500 VRB05KT P6SM VCSH SCT025 BKN050
     FM201900 18010G15KT P6SM -SHRA OVC025=



000
FTUS45 KLKN 200011 AAB
TAFWMC
TAF AMD
KWMC 200011Z 2000/2024 14004KT P6SM -RA OVC020
     FM200200 14004KT P6SM VCSH BKN030
     FM200500 VRB05KT P6SM VCSH SCT025 BKN050
     FM201900 18010G15KT P6SM -SHRA OVC025=



000
FTUS45 KLKN 192335 AAB
TAFEKO
TAF AMD
KEKO 192335Z 2000/2024 27009KT P6SM VCSH BKN050 OVC060
      TEMPO 2000/2004 1SM -SN OVC010
     FM200400 VRB05KT P6SM VCSH OVC035
     FM201900 24007KT P6SM VCSH OVC040=



000
FTUS45 KLKN 192335 AAB
TAFEKO
TAF AMD
KEKO 192335Z 2000/2024 27009KT P6SM VCSH BKN050 OVC060
      TEMPO 2000/2004 1SM -SN OVC010
     FM200400 VRB05KT P6SM VCSH OVC035
     FM201900 24007KT P6SM VCSH OVC040=



000
FTUS45 KLKN 192333 AAA
TAFELY
TAF AMD
KELY 192333Z 2000/2024 22004KT P6SM OVC110
     FM201900 22006KT P6SM VCSH OVC050=



000
FTUS45 KLKN 192333 AAA
TAFEKO
TAF AMD
KEKO 192333Z 2000/2024 27009KT P6SM BKN050 OVC060
      TEMPO 2000/2004 1SM -SN OVC010
     FM200400 VRB05KT P6SM VCSH OVC035
     FM201900 24007KT P6SM VCSH OVC040=



000
FTUS45 KLKN 192333 AAA
TAFTPH
TAF AMD
KTPH 192333Z 2000/2024 22005KT P6SM OVC100
     FM200300 35008KT P6SM SCT080 BKN120
     FM201900 30008KT P6SM BKN070=



000
FTUS45 KLKN 192333 AAA
TAFWMC
TAF AMD
KWMC 192333Z 2000/2024 22004KT 5SM -RA BR OVC020
      TEMPO 2000/2001 3SM RA OVC010
     FM200500 VRB05KT P6SM VCSH SCT025 BKN050
     FM201900 18010G15KT P6SM -SHRA OVC025=



000
FTUS45 KLKN 192333 AAA
TAFELY
TAF AMD
KELY 192333Z 2000/2024 22004KT P6SM OVC110
     FM201900 22006KT P6SM VCSH OVC050=



000
FTUS45 KLKN 192333 AAA
TAFEKO
TAF AMD
KEKO 192333Z 2000/2024 27009KT P6SM BKN050 OVC060
      TEMPO 2000/2004 1SM -SN OVC010
     FM200400 VRB05KT P6SM VCSH OVC035
     FM201900 24007KT P6SM VCSH OVC040=



000
FTUS45 KLKN 192333 AAA
TAFTPH
TAF AMD
KTPH 192333Z 2000/2024 22005KT P6SM OVC100
     FM200300 35008KT P6SM SCT080 BKN120
     FM201900 30008KT P6SM BKN070=



000
FTUS45 KLKN 192333 AAA
TAFWMC
TAF AMD
KWMC 192333Z 2000/2024 22004KT 5SM -RA BR OVC020
      TEMPO 2000/2001 3SM RA OVC010
     FM200500 VRB05KT P6SM VCSH SCT025 BKN050
     FM201900 18010G15KT P6SM -SHRA OVC025=



000
FTUS45 KLKN 192320
TAFEKO
TAF
KEKO 192320Z 2000/2024 24006KT P6SM -SHRA OVC040
      TEMPO 2000/2004 5SM -SHRASN
     FM200400 VRB05KT P6SM VCSH OVC035
     FM201900 24007KT P6SM VCSH OVC040=



000
FTUS45 KLKN 192320
TAFTPH
TAF
KTPH 192320Z 2000/2024 17007KT P6SM OVC120
     FM200300 35008KT P6SM SCT080 BKN120
     FM201900 30008KT P6SM BKN070=



000
FTUS45 KLKN 192320
TAFWMC
TAF
KWMC 192320Z 2000/2024 18006KT P6SM -SHRASN OVC025
     FM200500 VRB05KT P6SM VCSH SCT025 BKN050
     FM201900 18010G15KT P6SM -SHRA OVC025=



000
FTUS45 KLKN 192320
TAFEKO
TAF
KEKO 192320Z 2000/2024 24006KT P6SM -SHRA OVC040
      TEMPO 2000/2004 5SM -SHRASN
     FM200400 VRB05KT P6SM VCSH OVC035
     FM201900 24007KT P6SM VCSH OVC040=



000
FTUS45 KLKN 192320
TAFTPH
TAF
KTPH 192320Z 2000/2024 17007KT P6SM OVC120
     FM200300 35008KT P6SM SCT080 BKN120
     FM201900 30008KT P6SM BKN070=



000
FTUS45 KLKN 192320
TAFELY
TAF
KELY 192320Z 2000/2024 18009KT P6SM BKN070
     FM201900 22006KT P6SM VCSH OVC050=



000
FTUS45 KLKN 192320
TAFELY
TAF
KELY 192320Z 2000/2024 18009KT P6SM BKN070
     FM201900 22006KT P6SM VCSH OVC050=



000
FTUS45 KLKN 192320
TAFWMC
TAF
KWMC 192320Z 2000/2024 18006KT P6SM -SHRASN OVC025
     FM200500 VRB05KT P6SM VCSH SCT025 BKN050
     FM201900 18010G15KT P6SM -SHRA OVC025=



000
FTUS45 KLKN 192303 AAA
TAFEKO
TAF AMD
KEKO 192303Z 1923/2018 27009KT P6SM VCSH BKN050 OVC060
      TEMPO 1923/2003 2SM -SN OVC020
     FM201700 24007KT P6SM VCSH OVC040=



000
FTUS45 KLKN 192303 AAA
TAFEKO
TAF AMD
KEKO 192303Z 1923/2018 27009KT P6SM VCSH BKN050 OVC060
      TEMPO 1923/2003 2SM -SN OVC020
     FM201700 24007KT P6SM VCSH OVC040=



000
FTUS45 KLKN 192301 AAA
TAFWMC
TAF AMD
KWMC 192301Z 1923/2018 22004KT 5SM -RA BR OVC020
     FM200300 VRB05KT P6SM VCSH SCT025 BKN050
     FM201700 18010G15KT P6SM VCSH OVC035=



000
FTUS45 KLKN 192301 AAA
TAFWMC
TAF AMD
KWMC 192301Z 1923/2018 22004KT 5SM -RA BR OVC020
     FM200300 VRB05KT P6SM VCSH SCT025 BKN050
     FM201700 18010G15KT P6SM VCSH OVC035=



    US Dept of Commerce
    National Oceanic and Atmospheric Administration
    National Weather Service
    1325 East West Highway
    Silver Spring, MD 20910
    Page Author: NWS Internet Services Team
Disclaimer
Information Quality
Credits
Glossary
Privacy Policy
Freedom of Information Act (FOIA)
About Us
Career Opportunities